Time;durP1;ratioP1;P1;durP2;ratioP2;P2;SDS_P1;SDS_P2;PMS_P1;PMS_P2;Temp;Humidity;BMP_temperature;BMP_pressure;BME280_temperature;BME280_humidity;BME280_pressure;Samples;Min_cycle;Max_cycle;Signal;HPM_P1;HPM_P2
2023/08/17 00:00:13;;;;;;;2.70;1.57;;;21.80;99.90;;;;;;5014044;28;20231;-72
2023/08/17 00:02:40;;;;;;;2.77;1.93;;;21.70;99.90;;;;;;5018189;28;20470;-72
2023/08/17 00:05:08;;;;;;;2.33;2.03;;;21.70;99.90;;;;;;5017745;28;20466;-72
2023/08/17 00:07:35;;;;;;;1.83;1.70;;;21.70;99.90;;;;;;5034816;28;20513;-72
2023/08/17 00:10:01;;;;;;;2.17;1.90;;;21.70;99.90;;;;;;5015749;28;20478;-73
2023/08/17 00:12:26;;;;;;;2.30;1.77;;;21.70;99.90;;;;;;5016705;28;20588;-73
2023/08/17 00:14:53;;;;;;;3.17;2.57;;;21.70;99.90;;;;;;5016513;28;20947;-73
2023/08/17 00:17:19;;;;;;;2.30;2.10;;;21.70;99.90;;;;;;5018583;28;20654;-73
2023/08/17 00:19:45;;;;;;;1.93;1.70;;;21.60;99.90;;;;;;5017846;28;20929;-72
2023/08/17 00:22:11;;;;;;;6.40;2.80;;;21.60;99.90;;;;;;5028006;28;20513;-73
2023/08/17 00:24:36;;;;;;;3.37;2.20;;;21.60;99.90;;;;;;5019824;28;20329;-72
2023/08/17 00:27:03;;;;;;;2.10;1.90;;;21.60;99.90;;;;;;5003905;28;20684;-72
2023/08/17 00:29:29;;;;;;;3.10;2.80;;;21.60;99.90;;;;;;5033026;28;20215;-72
2023/08/17 00:31:56;;;;;;;3.30;2.60;;;21.60;99.90;;;;;;5000171;28;20462;-72
2023/08/17 00:34:21;;;;;;;2.20;2.00;;;21.60;99.90;;;;;;4998589;28;20469;-72
2023/08/17 00:36:47;;;;;;;2.50;2.30;;;21.50;99.90;;;;;;5000201;28;20231;-73
2023/08/17 00:39:14;;;;;;;2.97;1.97;;;21.50;99.90;;;;;;4998249;28;20284;-72
2023/08/17 00:41:40;;;;;;;2.17;2.03;;;21.50;99.90;;;;;;5034217;28;20220;-72
2023/08/17 00:44:06;;;;;;;2.67;2.40;;;21.50;99.90;;;;;;5015525;28;20494;-72
2023/08/17 00:46:32;;;;;;;3.63;3.27;;;21.50;99.90;;;;;;4999469;28;20950;-73
2023/08/17 00:48:58;;;;;;;2.43;2.20;;;21.40;99.90;;;;;;4998786;28;20405;-72
2023/08/17 00:51:24;;;;;;;3.17;2.73;;;21.40;99.90;;;;;;5014921;28;20460;-72
2023/08/17 00:53:51;;;;;;;2.10;1.90;;;21.40;99.90;;;;;;4985484;28;20223;-73
2023/08/17 00:56:17;;;;;;;3.37;2.40;;;21.40;99.90;;;;;;5000268;28;20501;-72
2023/08/17 00:58:43;;;;;;;3.33;2.77;;;21.30;99.90;;;;;;4999671;28;20462;-72
2023/08/17 01:01:09;;;;;;;3.10;2.70;;;21.30;99.90;;;;;;4999533;28;20579;-72
2023/08/17 01:03:35;;;;;;;3.60;2.90;;;21.30;99.90;;;;;;4997104;28;20227;-73
2023/08/17 01:06:02;;;;;;;3.70;3.03;;;21.30;99.90;;;;;;5014297;28;20498;-73
2023/08/17 01:08:29;;;;;;;2.90;2.63;;;21.30;99.90;;;;;;5000702;28;20235;-73
2023/08/17 01:11:17;;;;;;;3.80;3.20;;;21.30;99.90;;;;;;5015929;28;20477;-72
2023/08/17 01:13:59;;;;;;;5.23;3.60;;;21.30;99.90;;;;;;4987173;28;20466;-72
2023/08/17 01:16:29;;;;;;;5.03;3.40;;;21.20;99.90;;;;;;5015533;28;20647;-72
2023/08/17 01:18:57;;;;;;;5.10;3.70;;;21.20;99.90;;;;;;4999901;28;21006;-72
2023/08/17 01:21:28;;;;;;;3.93;3.47;;;21.20;99.90;;;;;;5015126;28;20474;-73
2023/08/17 01:23:59;;;;;;;5.73;4.17;;;21.20;99.90;;;;;;5017540;28;20935;-72
2023/08/17 01:26:24;;;;;;;7.70;3.50;;;21.10;99.90;;;;;;5015981;28;21107;-72
2023/08/17 01:28:51;;;;;;;3.40;3.03;;;21.10;99.90;;;;;;5016799;28;20455;-72
2023/08/17 01:31:39;;;;;;;4.10;3.70;;;21.20;99.90;;;;;;5000199;28;20475;-73
2023/08/17 01:34:09;;;;;;;3.60;3.30;;;21.20;99.90;;;;;;5009442;28;20219;-73
2023/08/17 01:36:46;;;;;;;4.73;3.30;;;21.20;99.90;;;;;;5015278;28;20471;-72
2023/08/17 01:39:15;;;;;;;5.40;3.30;;;21.20;99.90;;;;;;5033433;28;20619;-72
2023/08/17 01:41:41;;;;;;;4.37;3.50;;;21.10;99.90;;;;;;5019916;28;20490;-73
2023/08/17 01:44:07;;;;;;;6.53;4.10;;;21.10;99.90;;;;;;5019056;28;21084;-72
2023/08/17 01:46:33;;;;;;;5.83;4.70;;;21.00;99.90;;;;;;5020577;28;20475;-73
2023/08/17 01:48:59;;;;;;;5.13;4.40;;;21.00;99.90;;;;;;5001907;28;20211;-73
2023/08/17 01:51:25;;;;;;;5.10;4.23;;;21.00;99.90;;;;;;5020556;28;20226;-72
2023/08/17 01:53:51;;;;;;;11.03;5.50;;;21.00;99.90;;;;;;5018490;28;20231;-72
2023/08/17 01:56:17;;;;;;;6.73;5.80;;;21.00;99.90;;;;;;5036008;28;20216;-72
2023/08/17 01:58:44;;;;;;;7.83;5.70;;;21.00;99.90;;;;;;5018838;28;20458;-72
2023/08/17 02:01:10;;;;;;;6.77;5.20;;;21.00;99.90;;;;;;5018350;28;20466;-73
2023/08/17 02:03:35;;;;;;;6.77;5.70;;;21.00;99.90;;;;;;5039283;28;20293;-72
2023/08/17 02:06:01;;;;;;;6.03;4.93;;;21.00;99.90;;;;;;5019786;28;20818;-73
2023/08/17 02:08:27;;;;;;;8.30;5.40;;;21.00;99.90;;;;;;5005829;28;20227;-73
2023/08/17 02:10:53;;;;;;;8.87;5.60;;;21.00;99.90;;;;;;5022963;28;20227;-72
2023/08/17 02:13:21;;;;;;;7.37;5.77;;;21.00;99.90;;;;;;5022860;28;20955;-72
2023/08/17 02:15:47;;;;;;;8.00;5.40;;;21.00;99.90;;;;;;4994102;28;20484;-72
2023/08/17 02:18:13;;;;;;;8.37;5.77;;;20.90;99.90;;;;;;5043015;28;20218;-72
2023/08/17 02:20:38;;;;;;;8.90;6.70;;;20.90;99.90;;;;;;5022361;28;20511;-73
2023/08/17 02:23:04;;;;;;;8.70;6.10;;;20.90;99.90;;;;;;5024057;28;20227;-73
2023/08/17 02:25:35;;;;;;;8.33;5.87;;;20.90;99.90;;;;;;5031406;28;20224;-73
2023/08/17 02:28:04;;;;;;;8.23;5.50;;;21.00;99.90;;;;;;5007138;28;20243;-72
2023/08/17 02:30:29;;;;;;;5.90;4.60;;;21.00;99.90;;;;;;5006726;28;20462;-72
2023/08/17 02:32:57;;;;;;;7.93;5.40;;;21.00;99.90;;;;;;5022054;28;20568;-72
2023/08/17 02:35:23;;;;;;;6.47;4.87;;;21.00;99.90;;;;;;5021291;28;20489;-73
2023/08/17 02:37:49;;;;;;;7.20;5.57;;;21.00;99.90;;;;;;5023182;28;20231;-73
2023/08/17 02:40:15;;;;;;;6.80;5.60;;;20.90;99.90;;;;;;5002354;28;20544;-72
2023/08/17 02:42:40;;;;;;;9.17;6.67;;;20.90;99.90;;;;;;5005233;28;20228;-72
2023/08/17 02:45:08;;;;;;;8.10;5.43;;;20.80;99.90;;;;;;5021503;28;20220;-73
2023/08/17 02:47:34;;;;;;;9.97;6.10;;;20.80;99.90;;;;;;5020915;28;20228;-72
2023/08/17 02:50:00;;;;;;;9.83;7.20;;;20.80;99.90;;;;;;5005601;28;20482;-72
2023/08/17 02:52:26;;;;;;;8.40;5.53;;;20.80;99.90;;;;;;5022211;28;20223;-72
2023/08/17 02:54:51;;;;;;;9.00;6.27;;;20.80;99.90;;;;;;5022212;28;20235;-72
2023/08/17 02:57:18;;;;;;;10.90;7.73;;;20.80;99.90;;;;;;5004098;28;20224;-72
2023/08/17 02:59:45;;;;;;;10.50;6.90;;;20.80;99.90;;;;;;4984404;28;20235;-72
2023/08/17 03:02:11;;;;;;;9.80;7.10;;;20.90;99.90;;;;;;5005829;28;20468;-72
2023/08/17 03:04:37;;;;;;;9.83;7.70;;;20.90;99.90;;;;;;5021712;28;20936;-73
2023/08/17 03:07:02;;;;;;;11.37;6.87;;;20.90;99.90;;;;;;5022599;28;20256;-73
2023/08/17 03:09:28;;;;;;;9.30;6.47;;;20.80;99.90;;;;;;5005063;28;20216;-72
2023/08/17 03:11:54;;;;;;;9.63;6.70;;;20.90;99.90;;;;;;4989555;28;20234;-72
2023/08/17 03:14:19;;;;;;;7.97;6.33;;;20.90;99.90;;;;;;5022036;28;20222;-73
2023/08/17 03:16:45;;;;;;;9.30;7.83;;;20.90;99.90;;;;;;5038961;28;20766;-73
2023/08/17 03:19:11;;;;;;;8.50;6.80;;;20.60;99.90;;;;;;5019895;28;20477;-72
2023/08/17 03:21:38;;;;;;;8.90;6.20;;;20.60;99.90;;;;;;5004800;28;20220;-72
2023/08/17 03:24:04;;;;;;;10.83;6.57;;;20.70;99.90;;;;;;5021440;28;20513;-73
2023/08/17 03:26:30;;;;;;;8.43;6.13;;;20.70;99.90;;;;;;5020386;28;20232;-72
2023/08/17 03:28:56;;;;;;;10.90;8.10;;;20.70;99.90;;;;;;5022450;28;20502;-73
2023/08/17 03:31:22;;;;;;;7.40;6.60;;;20.70;99.90;;;;;;5003533;28;20209;-72
2023/08/17 03:33:48;;;;;;;8.50;7.60;;;20.70;99.90;;;;;;5037688;28;20228;-72
2023/08/17 03:36:14;;;;;;;7.13;6.20;;;20.70;99.90;;;;;;5034948;28;20219;-72
2023/08/17 03:38:39;;;;;;;9.97;6.10;;;20.70;99.90;;;;;;5002943;28;20602;-73
2023/08/17 03:41:06;;;;;;;9.87;6.63;;;20.70;99.90;;;;;;5001454;28;20710;-73
2023/08/17 03:43:32;;;;;;;7.30;6.30;;;20.60;99.90;;;;;;5019308;28;20231;-73
2023/08/17 03:45:58;;;;;;;8.20;7.13;;;20.60;99.90;;;;;;5036415;28;20474;-73
2023/08/17 03:48:24;;;;;;;7.30;6.60;;;20.60;99.90;;;;;;5005168;28;20469;-73
2023/08/17 03:50:54;;;;;;;7.90;6.47;;;20.60;99.90;;;;;;4986961;28;20350;-73
2023/08/17 03:53:19;;;;;;;7.00;6.30;;;20.60;99.90;;;;;;5003673;28;20470;-73
2023/08/17 03:55:49;;;;;;;7.20;6.23;;;20.60;99.90;;;;;;5003170;28;20471;-73
2023/08/17 03:58:16;;;;;;;7.17;5.83;;;20.50;99.90;;;;;;5037759;28;20461;-73
2023/08/17 04:00:42;;;;;;;8.90;6.77;;;20.50;99.90;;;;;;5001266;28;21375;-74
2023/08/17 04:03:08;;;;;;;6.97;6.27;;;20.60;99.90;;;;;;5000993;28;20470;-73
2023/08/17 04:05:34;;;;;;;7.17;6.10;;;20.50;99.90;;;;;;5016761;28;20470;-73
2023/08/17 04:08:02;;;;;;;6.80;5.87;;;20.60;99.90;;;;;;5034273;28;20466;-73
2023/08/17 04:10:29;;;;;;;9.20;6.40;;;20.60;99.90;;;;;;5002173;28;20266;-73
2023/08/17 04:12:56;;;;;;;7.40;6.20;;;20.60;99.90;;;;;;5016000;28;20471;-73
2023/08/17 04:15:21;;;;;;;7.50;6.40;;;20.60;99.90;;;;;;5014435;28;21101;-73
2023/08/17 04:17:47;;;;;;;7.57;6.80;;;20.50;99.90;;;;;;5018027;28;20466;-72
2023/08/17 04:20:13;;;;;;;7.17;5.93;;;20.40;99.90;;;;;;5001257;28;20485;-73
2023/08/17 04:22:39;;;;;;;8.17;7.07;;;20.40;99.90;;;;;;4988434;28;20234;-73
2023/08/17 04:25:05;;;;;;;6.83;5.63;;;20.30;99.90;;;;;;5004242;28;20276;-72
2023/08/17 04:27:30;;;;;;;9.07;6.10;;;20.40;99.90;;;;;;5005207;28;20246;-72
2023/08/17 04:29:57;;;;;;;7.87;6.57;;;20.30;99.90;;;;;;5002747;28;21083;-72
2023/08/17 04:32:23;;;;;;;7.63;5.67;;;20.30;99.90;;;;;;5002116;28;20232;-72
2023/08/17 04:34:49;;;;;;;6.70;5.67;;;20.20;99.90;;;;;;5003644;28;20462;-72
2023/08/17 04:37:15;;;;;;;8.90;6.53;;;20.30;99.90;;;;;;5020354;28;20226;-73
2023/08/17 04:39:43;;;;;;;8.33;6.70;;;20.20;99.90;;;;;;5021481;28;20230;-73
2023/08/17 04:42:09;;;;;;;7.47;6.70;;;20.20;99.90;;;;;;5004099;28;20228;-73
2023/08/17 04:44:35;;;;;;;6.90;5.97;;;20.30;99.90;;;;;;5004344;28;20548;-72
2023/08/17 04:47:01;;;;;;;8.90;6.53;;;20.30;99.90;;;;;;5002372;28;20308;-72
2023/08/17 04:49:27;;;;;;;6.90;5.30;;;20.30;99.90;;;;;;5021850;28;20531;-72
2023/08/17 04:51:53;;;;;;;7.80;6.30;;;20.20;99.90;;;;;;5002299;28;20235;-72
2023/08/17 04:54:19;;;;;;;6.40;5.50;;;20.20;99.90;;;;;;5000371;28;20475;-72
2023/08/17 04:56:45;;;;;;;9.67;5.40;;;20.30;99.90;;;;;;5017800;28;20235;-73
2023/08/17 04:59:11;;;;;;;7.77;6.00;;;20.20;99.90;;;;;;4999219;28;20270;-72
2023/08/17 05:01:38;;;;;;;7.43;5.67;;;20.30;99.90;;;;;;4997050;28;20828;-73
2023/08/17 05:04:04;;;;;;;7.77;5.93;;;20.30;99.90;;;;;;5015099;28;20470;-72
2023/08/17 05:06:31;;;;;;;9.33;5.90;;;20.30;99.90;;;;;;5012277;28;20231;-73
2023/08/17 05:08:57;;;;;;;6.73;5.73;;;20.30;99.90;;;;;;4998149;28;20466;-73
2023/08/17 05:11:23;;;;;;;6.87;5.80;;;20.30;99.90;;;;;;4997575;28;20726;-72
2023/08/17 05:13:49;;;;;;;8.97;6.73;;;20.30;99.90;;;;;;4998279;28;20466;-72
2023/08/17 05:16:15;;;;;;;8.40;6.20;;;20.30;99.90;;;;;;5012625;28;20477;-72
2023/08/17 05:18:41;;;;;;;8.87;5.20;;;20.30;99.90;;;;;;5014443;28;20220;-73
2023/08/17 05:21:08;;;;;;;6.20;5.43;;;20.30;99.90;;;;;;4997528;28;20485;-73
2023/08/17 05:23:33;;;;;;;5.90;4.47;;;20.30;99.90;;;;;;4998258;28;20590;-72
2023/08/17 05:26:00;;;;;;;5.93;5.00;;;20.30;99.90;;;;;;5030357;28;20235;-73
2023/08/17 05:28:26;;;;;;;6.30;4.67;;;20.30;99.90;;;;;;5029895;28;21025;-72
2023/08/17 05:30:53;;;;;;;8.30;4.40;;;20.30;99.90;;;;;;5016674;28;20462;-73
2023/08/17 05:33:19;;;;;;;4.40;4.00;;;20.30;99.90;;;;;;5000344;28;20220;-73
2023/08/17 05:35:45;;;;;;;5.73;4.40;;;20.30;99.90;;;;;;5001222;28;20471;-72
2023/08/17 05:38:11;;;;;;;5.67;4.67;;;20.30;99.90;;;;;;4995749;28;20470;-72
2023/08/17 05:40:36;;;;;;;3.70;3.40;;;20.20;99.90;;;;;;5026998;28;20236;-72
2023/08/17 05:43:02;;;;;;;6.07;4.53;;;20.20;99.90;;;;;;5031038;28;20220;-72
2023/08/17 05:45:28;;;;;;;4.37;3.97;;;20.20;99.90;;;;;;4994270;28;20282;-73
2023/08/17 05:47:54;;;;;;;4.27;3.57;;;20.10;99.90;;;;;;4964833;28;20216;-73
2023/08/17 05:50:19;;;;;;;4.07;3.67;;;20.20;99.90;;;;;;4980383;28;20398;-73
2023/08/17 05:52:45;;;;;;;5.87;3.13;;;20.30;99.90;;;;;;4963101;28;20220;-72
2023/08/17 05:55:11;;;;;;;2.87;2.57;;;20.30;99.90;;;;;;4979838;28;20836;-72
2023/08/17 05:57:37;;;;;;;3.80;3.50;;;20.30;99.90;;;;;;4966974;28;20225;-73
2023/08/17 06:00:03;;;;;;;3.23;2.93;;;20.40;99.90;;;;;;4996341;28;20235;-72
2023/08/17 06:02:38;;;;;;;2.60;2.40;;;20.40;99.90;;;;;;4994535;28;21549;-73
2023/08/17 06:05:04;;;;;;;2.73;2.10;;;20.30;99.90;;;;;;4965664;28;21061;-73
2023/08/17 06:07:30;;;;;;;2.80;2.37;;;20.40;99.90;;;;;;4996576;28;20471;-73
2023/08/17 06:09:56;;;;;;;2.03;1.90;;;20.30;99.90;;;;;;4980043;28;20471;-73
2023/08/17 06:12:21;;;;;;;1.73;1.63;;;20.30;99.90;;;;;;4963652;28;20409;-73
2023/08/17 06:14:47;;;;;;;1.80;1.60;;;20.40;99.90;;;;;;4982432;28;20260;-73
2023/08/17 06:17:12;;;;;;;1.60;1.50;;;20.40;99.90;;;;;;4979515;28;20228;-74
2023/08/17 06:19:39;;;;;;;1.37;1.27;;;20.40;99.90;;;;;;4961584;28;20319;-73
2023/08/17 06:22:05;;;;;;;1.93;1.70;;;20.40;99.90;;;;;;4962848;28;20216;-74
2023/08/17 06:24:31;;;;;;;1.53;1.43;;;20.40;99.90;;;;;;4998129;28;20486;-73
2023/08/17 06:26:56;;;;;;;3.23;1.40;;;20.50;99.90;;;;;;4984049;28;20278;-73
2023/08/17 06:29:22;;;;;;;3.70;2.00;;;20.40;99.90;;;;;;4974354;28;20884;-73
2023/08/17 06:31:48;;;;;;;2.40;1.60;;;20.50;99.90;;;;;;5021674;28;20689;-72
2023/08/17 06:34:14;;;;;;;1.70;1.50;;;20.40;99.90;;;;;;5005170;28;20449;-73
2023/08/17 06:36:39;;;;;;;1.63;1.53;;;20.50;99.90;;;;;;5005242;28;20251;-72
2023/08/17 06:39:05;;;;;;;3.90;1.90;;;20.50;99.90;;;;;;5003613;28;20690;-72
2023/08/17 06:41:31;;;;;;;1.50;1.40;;;20.60;99.90;;;;;;5003829;28;20235;-72
2023/08/17 06:43:56;;;;;;;1.27;1.23;;;20.50;99.90;;;;;;5005107;28;20227;-73
2023/08/17 06:46:22;;;;;;;1.80;1.70;;;20.60;99.90;;;;;;4992799;28;20227;-72
2023/08/17 06:48:48;;;;;;;1.80;1.70;;;20.60;99.90;;;;;;5036570;28;20232;-72
2023/08/17 06:51:13;;;;;;;2.50;2.30;;;20.60;99.90;;;;;;5021227;28;20234;-73
2023/08/17 06:53:40;;;;;;;1.87;1.77;;;20.60;99.90;;;;;;5002171;28;20255;-73
2023/08/17 06:56:06;;;;;;;2.20;2.00;;;20.60;99.90;;;;;;5021229;28;20235;-73
2023/08/17 06:58:31;;;;;;;2.50;2.30;;;20.60;99.90;;;;;;5001701;28;20471;-72
2023/08/17 07:00:57;;;;;;;3.40;2.73;;;20.60;99.90;;;;;;5001948;28;20234;-73
2023/08/17 07:03:23;;;;;;;5.70;3.00;;;20.60;99.90;;;;;;4998786;28;20309;-73
2023/08/17 07:05:48;;;;;;;4.37;3.00;;;20.60;99.90;;;;;;5020325;28;20309;-73
2023/08/17 07:08:14;;;;;;;2.30;2.10;;;20.70;99.90;;;;;;5019972;28;20220;-72
2023/08/17 07:10:40;;;;;;;2.97;2.37;;;20.70;99.90;;;;;;5004147;28;20329;-72
2023/08/17 07:13:06;;;;;;;2.53;2.33;;;20.60;99.90;;;;;;5004830;28;20877;-72
2023/08/17 07:15:31;;;;;;;2.87;2.57;;;20.60;99.90;;;;;;5033583;28;20220;-72
2023/08/17 07:17:57;;;;;;;2.83;2.20;;;20.60;99.90;;;;;;5000347;28;20466;-72
2023/08/17 07:20:23;;;;;;;5.93;2.67;;;20.70;99.90;;;;;;5036132;28;20223;-72
2023/08/17 07:22:49;;;;;;;2.60;2.40;;;20.70;99.90;;;;;;5002820;28;20224;-72
2023/08/17 07:25:14;;;;;;;2.30;2.10;;;20.70;99.90;;;;;;5020215;28;20506;-73
2023/08/17 07:27:41;;;;;;;4.50;2.57;;;20.70;99.90;;;;;;5003214;28;20223;-72
2023/08/17 07:30:07;;;;;;;3.50;2.43;;;20.80;99.90;;;;;;5001204;28;20266;-73
2023/08/17 07:32:34;;;;;;;4.60;2.30;;;20.90;99.90;;;;;;4997722;28;20479;-73
2023/08/17 07:34:59;;;;;;;2.30;2.20;;;20.90;99.90;;;;;;5002156;28;20459;-73
2023/08/17 07:37:32;;;;;;;3.00;2.80;;;21.00;99.90;;;;;;4997781;28;21125;-73
2023/08/17 07:39:58;;;;;;;4.03;3.00;;;21.00;99.90;;;;;;5017856;28;20233;-72
2023/08/17 07:42:24;;;;;;;3.90;3.60;;;21.00;99.90;;;;;;5015962;28;20914;-73
2023/08/17 07:44:49;;;;;;;3.57;3.27;;;21.10;99.90;;;;;;5033366;28;20593;-72
2023/08/17 07:47:15;;;;;;;4.57;3.10;;;21.10;99.90;;;;;;5013691;28;20223;-73
2023/08/17 07:49:41;;;;;;;3.37;3.07;;;21.10;99.90;;;;;;5001374;28;20303;-73
2023/08/17 07:52:06;;;;;;;3.27;3.07;;;21.20;99.90;;;;;;5002868;28;20803;-73
2023/08/17 07:54:33;;;;;;;3.50;2.57;;;21.20;99.90;;;;;;5000331;28;20294;-73
2023/08/17 07:56:59;;;;;;;3.30;3.00;;;21.30;99.90;;;;;;5018142;28;20342;-73
2023/08/17 07:59:25;;;;;;;4.03;3.40;;;21.30;99.90;;;;;;5016231;28;20445;-73
2023/08/17 08:01:50;;;;;;;3.53;3.23;;;21.30;99.90;;;;;;4988096;28;20311;-72
2023/08/17 08:04:16;;;;;;;3.70;3.40;;;21.30;99.90;;;;;;4998524;28;20254;-72
2023/08/17 08:06:42;;;;;;;3.70;3.30;;;21.30;99.90;;;;;;5000387;28;20929;-71
2023/08/17 08:09:08;;;;;;;3.00;2.80;;;21.30;99.90;;;;;;4999482;28;20227;-73
2023/08/17 08:11:33;;;;;;;3.60;3.27;;;21.30;99.90;;;;;;5032410;28;20478;-72
2023/08/17 08:13:59;;;;;;;3.53;3.23;;;21.40;99.90;;;;;;4997650;28;20223;-72
2023/08/17 08:16:25;;;;;;;3.80;3.00;;;21.40;99.90;;;;;;5013401;28;20560;-73
2023/08/17 08:18:50;;;;;;;3.20;3.00;;;21.40;99.90;;;;;;5002469;28;20246;-73
2023/08/17 08:21:16;;;;;;;3.90;3.00;;;21.40;99.90;;;;;;5000907;28;20269;-73
2023/08/17 08:23:42;;;;;;;5.57;3.10;;;21.50;99.90;;;;;;5001226;28;20808;-73
2023/08/17 08:26:07;;;;;;;3.07;2.87;;;21.50;99.90;;;;;;5002083;28;20248;-73
2023/08/17 08:28:33;;;;;;;3.33;3.00;;;21.50;99.90;;;;;;5003404;28;20354;-72
2023/08/17 08:31:03;;;;;;;3.27;2.97;;;21.50;99.90;;;;;;4998708;28;20646;-73
2023/08/17 08:33:29;;;;;;;3.00;2.70;;;21.60;99.90;;;;;;5031044;28;20228;-72
2023/08/17 08:35:54;;;;;;;3.53;3.23;;;21.60;99.90;;;;;;5020267;28;20478;-73
2023/08/17 08:38:20;;;;;;;3.60;3.30;;;21.70;99.90;;;;;;5018608;28;20254;-72
2023/08/17 08:40:47;;;;;;;3.53;3.30;;;21.70;99.90;;;;;;5017676;28;20251;-71
2023/08/17 08:43:13;;;;;;;3.87;3.57;;;21.70;99.90;;;;;;5001997;28;20216;-73
2023/08/17 08:45:41;;;;;;;3.77;3.47;;;21.70;99.90;;;;;;5034882;28;20501;-73
2023/08/17 08:48:09;;;;;;;3.07;2.87;;;21.70;99.90;;;;;;5001996;28;20471;-73
2023/08/17 08:50:36;;;;;;;3.00;2.80;;;21.70;99.90;;;;;;5017118;28;20534;-73
2023/08/17 08:53:06;;;;;;;3.63;3.33;;;21.80;99.90;;;;;;5002741;28;20668;-73
2023/08/17 08:55:38;;;;;;;4.00;3.70;;;21.90;99.90;;;;;;5015895;28;20525;-73
2023/08/17 08:58:07;;;;;;;3.60;3.30;;;22.00;99.90;;;;;;5017131;28;21144;-73
2023/08/17 09:00:34;;;;;;;3.83;3.50;;;22.10;99.90;;;;;;4997427;28;20568;-73
2023/08/17 09:03:03;;;;;;;3.53;3.20;;;22.20;99.90;;;;;;5000025;28;20459;-73
2023/08/17 09:05:31;;;;;;;4.27;3.87;;;22.20;99.90;;;;;;4995422;28;20453;-72
2023/08/17 09:07:57;;;;;;;4.40;3.40;;;22.30;99.90;;;;;;5000421;28;20469;-72
2023/08/17 09:10:23;;;;;;;4.20;3.80;;;22.30;99.90;;;;;;4994287;28;20474;-73
2023/08/17 09:12:49;;;;;;;3.30;3.10;;;22.40;99.90;;;;;;4996487;28;20483;-73
2023/08/17 09:15:15;;;;;;;3.60;3.30;;;22.40;99.90;;;;;;5016514;28;20343;-73
2023/08/17 09:17:40;;;;;;;3.83;3.53;;;22.50;99.90;;;;;;5015110;28;20813;-73
2023/08/17 09:20:08;;;;;;;3.70;3.40;;;22.60;99.90;;;;;;5017683;28;20346;-73
2023/08/17 09:22:42;;;;;;;3.30;3.10;;;22.60;99.90;;;;;;5011413;28;20216;-73
2023/08/17 09:25:21;;;;;;;3.80;3.50;;;22.60;99.90;;;;;;5014237;28;20461;-72
2023/08/17 09:27:47;;;;;;;3.77;3.07;;;22.70;99.90;;;;;;5012559;28;20768;-73
2023/08/17 09:30:13;;;;;;;3.30;3.10;;;22.80;99.90;;;;;;5014857;28;20576;-73
2023/08/17 09:32:38;;;;;;;3.60;3.30;;;22.80;99.90;;;;;;4985351;28;20335;-72
2023/08/17 09:35:06;;;;;;;3.47;3.27;;;22.90;99.90;;;;;;4997625;28;20669;-73
2023/08/17 09:37:34;;;;;;;9.67;3.40;;;22.90;99.90;;;;;;4962886;28;20349;-73
2023/08/17 09:40:00;;;;;;;4.00;3.70;;;23.00;99.90;;;;;;5001764;28;20485;-73
2023/08/17 09:42:27;;;;;;;3.20;2.90;;;23.10;99.90;;;;;;4982491;28;20467;-73
2023/08/17 09:44:53;;;;;;;3.43;3.13;;;23.10;99.90;;;;;;4964152;28;21018;-73
2023/08/17 09:47:21;;;;;;;4.83;3.60;;;23.40;99.90;;;;;;4965291;28;20475;-74
2023/08/17 09:49:51;;;;;;;5.03;4.53;;;23.60;99.90;;;;;;5016283;28;20536;-73
2023/08/17 09:52:18;;;;;;;4.00;3.70;;;23.70;99.90;;;;;;5018420;28;20470;-73
2023/08/17 09:54:47;;;;;;;4.80;4.00;;;23.90;99.90;;;;;;4983166;28;20463;-72
2023/08/17 09:57:13;;;;;;;7.83;4.10;;;24.00;99.90;;;;;;5032990;28;20863;-73
2023/08/17 09:59:39;;;;;;;4.70;4.30;;;24.20;99.90;;;;;;4999861;28;20455;-73
2023/08/17 10:02:17;;;;;;;4.43;4.03;;;24.30;99.90;;;;;;5017777;28;20540;-73
2023/08/17 10:04:46;;;;;;;4.17;3.77;;;24.30;99.90;;;;;;5002291;28;20215;-73
2023/08/17 10:07:13;;;;;;;4.53;4.13;;;24.40;99.90;;;;;;5001947;28;20858;-72
2023/08/17 10:09:46;;;;;;;5.00;4.47;;;24.40;99.90;;;;;;5002630;28;20467;-73
2023/08/17 10:12:16;;;;;;;4.10;3.73;;;24.60;99.90;;;;;;5017448;28;20474;-73
2023/08/17 10:14:55;;;;;;;6.33;4.37;;;24.80;99.90;;;;;;5007339;28;20481;-73
2023/08/17 10:17:26;;;;;;;8.27;3.60;;;24.90;99.90;;;;;;5016166;28;20465;-73
2023/08/17 10:19:58;;;;;;;3.83;3.20;;;25.10;99.90;;;;;;4997495;28;20432;-73
2023/08/17 10:22:38;;;;;;;4.63;3.93;;;25.00;99.90;;;;;;4998153;28;20553;-72
2023/08/17 10:25:07;;;;;;;4.17;3.87;;;24.90;99.90;;;;;;5033019;28;20527;-72
2023/08/17 10:27:35;;;;;;;3.67;3.47;;;25.00;99.90;;;;;;5033925;28;20499;-73
2023/08/17 10:30:01;;;;;;;3.83;3.63;;;25.10;99.90;;;;;;5015876;28;20465;-73
2023/08/17 10:32:28;;;;;;;4.50;3.90;;;25.20;99.90;;;;;;5029834;28;20476;-73
2023/08/17 10:34:54;;;;;;;3.93;3.63;;;25.20;99.90;;;;;;4996934;28;20461;-73
2023/08/17 10:37:20;;;;;;;4.30;4.00;;;25.10;99.90;;;;;;4999487;28;20482;-72
2023/08/17 10:39:48;;;;;;;4.30;4.00;;;25.20;99.90;;;;;;5016419;28;20342;-72
2023/08/17 10:42:14;;;;;;;4.20;3.90;;;25.20;99.90;;;;;;5017119;28;20547;-73
2023/08/17 10:44:48;;;;;;;3.80;3.50;;;25.20;99.90;;;;;;4999651;28;20996;-73
2023/08/17 10:47:35;;;;;;;4.03;3.73;;;25.30;99.90;;;;;;4998025;28;21133;-73
2023/08/17 10:50:06;;;;;;;3.80;3.60;;;25.50;99.90;;;;;;5017290;28;20557;-72
2023/08/17 10:52:40;;;;;;;4.30;3.93;;;25.70;99.90;;;;;;5020188;28;21021;-73
2023/08/17 10:55:09;;;;;;;3.40;3.20;;;25.70;99.90;;;;;;5021665;28;20469;-73
2023/08/17 10:57:42;;;;;;;3.80;3.50;;;25.80;99.90;;;;;;5034948;28;21196;-73
2023/08/17 11:00:19;;;;;;;3.53;3.33;;;26.00;99.90;;;;;;5011797;28;20472;-73
2023/08/17 11:02:53;;;;;;;5.00;4.60;;;26.20;99.90;;;;;;5020834;28;20464;-73
2023/08/17 11:05:40;;;;;;;3.40;3.20;;;26.10;99.90;;;;;;5015091;28;20458;-73
2023/08/17 11:08:09;;;;;;;3.70;3.50;;;26.20;99.90;;;;;;5019030;28;20489;-73
2023/08/17 11:10:35;;;;;;;3.93;3.63;;;26.30;99.90;;;;;;5015799;28;20500;-73
2023/08/17 11:13:01;;;;;;;4.13;3.83;;;26.30;99.90;;;;;;5019993;28;20742;-73
2023/08/17 11:15:44;;;;;;;4.17;3.87;;;26.50;99.90;;;;;;5030909;28;20465;-73
2023/08/17 11:18:12;;;;;;;7.17;4.00;;;26.60;99.90;;;;;;5015273;28;21137;-73
2023/08/17 11:20:40;;;;;;;4.57;4.17;;;26.90;99.90;;;;;;5018037;28;20517;-73
2023/08/17 11:23:06;;;;;;;5.13;4.43;;;26.80;99.90;;;;;;5034636;28;20473;-73
2023/08/17 11:25:32;;;;;;;4.43;4.13;;;26.70;99.90;;;;;;5010231;28;20595;-73
2023/08/17 11:28:02;;;;;;;4.60;4.20;;;26.70;99.90;;;;;;5018885;28;20481;-73
2023/08/17 11:30:28;;;;;;;4.63;4.30;;;26.70;99.90;;;;;;4984293;28;20489;-73
2023/08/17 11:32:55;;;;;;;5.10;4.70;;;26.80;99.90;;;;;;4999253;28;20992;-74
2023/08/17 11:35:21;;;;;;;4.55;3.97;;;27.00;99.90;;;;;;5000581;28;20226;-73
2023/08/17 11:37:48;;;;;;;4.83;4.23;;;27.00;99.90;;;;;;5002748;28;20889;-73
2023/08/17 11:40:14;;;;;;;4.60;4.20;;;27.10;99.90;;;;;;5001908;28;20520;-73
2023/08/17 11:42:41;;;;;;;5.13;4.27;;;27.20;99.90;;;;;;5000459;28;20581;-73
2023/08/17 11:45:10;;;;;;;4.97;4.50;;;27.50;99.90;;;;;;5019200;28;20336;-73
2023/08/17 11:47:39;;;;;;;4.87;4.47;;;27.70;99.90;;;;;;4995894;28;20936;-74
2023/08/17 11:50:08;;;;;;;4.10;3.90;;;27.80;99.90;;;;;;4991877;28;20545;-73
2023/08/17 11:52:33;;;;;;;4.28;4.03;;;28.00;99.90;;;;;;5019518;28;20227;-74
2023/08/17 11:55:00;;;;;;;4.60;4.30;;;28.00;99.90;;;;;;5002084;28;20228;-73
2023/08/17 11:57:26;;;;;;;4.10;3.88;;;28.10;99.90;;;;;;5016363;28;20227;-73
2023/08/17 11:59:56;;;;;;;4.45;4.15;;;28.10;99.90;;;;;;5017378;28;20223;-73
2023/08/17 12:02:24;;;;;;;4.38;4.07;;;28.20;99.90;;;;;;5015350;28;20276;-74
2023/08/17 12:04:50;;;;;;;4.90;4.55;;;28.20;99.90;;;;;;5016380;28;20249;-74
2023/08/17 12:07:17;;;;;;;4.38;4.07;;;28.20;99.90;;;;;;5001305;28;20572;-74
2023/08/17 12:09:44;;;;;;;4.53;4.22;;;28.30;99.90;;;;;;5017493;28;20343;-74
2023/08/17 12:12:10;;;;;;;4.30;4.00;;;28.30;99.90;;;;;;5000885;28;20215;-74
2023/08/17 12:14:36;;;;;;;3.97;3.78;;;28.40;99.90;;;;;;5000322;28;20263;-74
2023/08/17 12:17:02;;;;;;;4.28;3.60;;;28.40;99.90;;;;;;5014739;28;20219;-74
2023/08/17 12:19:29;;;;;;;4.55;4.22;;;28.50;99.90;;;;;;5000996;28;20340;-74
2023/08/17 12:21:56;;;;;;;7.80;4.00;;;28.30;99.90;;;;;;5017759;28;20332;-74
2023/08/17 12:24:24;;;;;;;3.95;3.65;;;28.30;99.90;;;;;;4996445;28;20323;-74
2023/08/17 12:26:49;;;;;;;4.35;4.03;;;28.20;99.90;;;;;;5000604;28;20230;-74
2023/08/17 12:29:15;;;;;;;4.13;3.83;;;28.20;99.90;;;;;;5016088;28;20293;-74
2023/08/17 12:31:41;;;;;;;3.42;3.22;;;28.10;99.90;;;;;;4995350;28;20317;-74
2023/08/17 12:34:06;;;;;;;3.50;3.30;;;28.10;99.90;;;;;;5000005;28;20350;-72
2023/08/17 12:36:32;;;;;;;3.40;3.20;;;28.00;99.90;;;;;;4999937;28;20218;-73
2023/08/17 12:38:58;;;;;;;5.22;3.60;;;27.90;99.90;;;;;;5002444;28;20227;-73
2023/08/17 12:41:24;;;;;;;4.25;3.95;;;27.80;99.90;;;;;;4997921;28;20231;-74
2023/08/17 12:43:50;;;;;;;4.13;3.67;;;27.80;99.90;;;;;;5000246;28;20271;-74